sensor_id;sensor_type;location;lat;lon;timestamp;P1;durP1;ratioP1;P2;durP2;ratioP2
14923;SDS011;7554;43.600;1.480;2023-03-12T00:01:30;2.47;;;1.43;;
14923;SDS011;7554;43.600;1.480;2023-03-12T00:04:00;2.47;;;1.70;;
14923;SDS011;7554;43.600;1.480;2023-03-12T00:06:27;3.10;;;1.50;;
14923;SDS011;7554;43.600;1.480;2023-03-12T00:08:56;1.63;;;1.37;;
14923;SDS011;7554;43.600;1.480;2023-03-12T00:11:26;2.23;;;1.87;;
14923;SDS011;7554;43.600;1.480;2023-03-12T00:13:54;1.73;;;1.60;;
14923;SDS011;7554;43.600;1.480;2023-03-12T00:16:24;2.00;;;1.80;;
14923;SDS011;7554;43.600;1.480;2023-03-12T00:18:52;2.87;;;2.00;;
14923;SDS011;7554;43.600;1.480;2023-03-12T00:21:20;1.97;;;1.77;;
14923;SDS011;7554;43.600;1.480;2023-03-12T00:23:50;3.03;;;1.87;;
14923;SDS011;7554;43.600;1.480;2023-03-12T00:26:19;4.07;;;1.80;;
14923;SDS011;7554;43.600;1.480;2023-03-12T00:28:47;3.83;;;1.80;;
14923;SDS011;7554;43.600;1.480;2023-03-12T00:31:16;3.67;;;1.60;;
14923;SDS011;7554;43.600;1.480;2023-03-12T00:33:45;4.50;;;1.60;;
14923;SDS011;7554;43.600;1.480;2023-03-12T00:36:14;1.70;;;1.40;;
14923;SDS011;7554;43.600;1.480;2023-03-12T00:38:42;3.03;;;1.53;;
14923;SDS011;7554;43.600;1.480;2023-03-12T00:41:09;2.43;;;1.63;;
14923;SDS011;7554;43.600;1.480;2023-03-12T00:43:38;1.77;;;1.50;;
14923;SDS011;7554;43.600;1.480;2023-03-12T00:46:05;2.77;;;1.70;;
14923;SDS011;7554;43.600;1.480;2023-03-12T00:48:33;2.50;;;1.73;;
14923;SDS011;7554;43.600;1.480;2023-03-12T00:51:00;4.50;;;1.93;;
14923;SDS011;7554;43.600;1.480;2023-03-12T00:53:27;3.40;;;1.60;;
14923;SDS011;7554;43.600;1.480;2023-03-12T00:55:55;2.90;;;1.67;;
14923;SDS011;7554;43.600;1.480;2023-03-12T00:58:22;3.33;;;1.37;;
14923;SDS011;7554;43.600;1.480;2023-03-12T01:00:51;1.80;;;1.20;;
14923;SDS011;7554;43.600;1.480;2023-03-12T01:03:18;1.60;;;1.00;;
14923;SDS011;7554;43.600;1.480;2023-03-12T01:05:46;2.07;;;1.27;;
14923;SDS011;7554;43.600;1.480;2023-03-12T01:08:18;2.13;;;1.37;;
14923;SDS011;7554;43.600;1.480;2023-03-12T01:10:46;3.10;;;1.20;;
14923;SDS011;7554;43.600;1.480;2023-03-12T01:13:13;1.30;;;1.10;;
14923;SDS011;7554;43.600;1.480;2023-03-12T01:15:40;0.83;;;0.77;;
14923;SDS011;7554;43.600;1.480;2023-03-12T01:18:09;1.30;;;0.90;;
14923;SDS011;7554;43.600;1.480;2023-03-12T01:20:36;1.30;;;0.93;;
14923;SDS011;7554;43.600;1.480;2023-03-12T01:23:05;2.00;;;1.23;;
14923;SDS011;7554;43.600;1.480;2023-03-12T01:25:32;2.23;;;1.20;;
14923;SDS011;7554;43.600;1.480;2023-03-12T01:28:00;1.20;;;1.10;;
14923;SDS011;7554;43.600;1.480;2023-03-12T01:30:27;1.87;;;1.13;;
14923;SDS011;7554;43.600;1.480;2023-03-12T01:32:55;0.83;;;0.70;;
14923;SDS011;7554;43.600;1.480;2023-03-12T01:35:24;2.10;;;0.90;;
14923;SDS011;7554;43.600;1.480;2023-03-12T01:37:51;3.23;;;0.60;;
14923;SDS011;7554;43.600;1.480;2023-03-12T01:40:20;0.80;;;0.70;;
14923;SDS011;7554;43.600;1.480;2023-03-12T01:42:52;1.13;;;0.73;;
14923;SDS011;7554;43.600;1.480;2023-03-12T01:48:33;2.33;;;1.10;;
14923;SDS011;7554;43.600;1.480;2023-03-12T01:51:06;3.10;;;0.80;;
14923;SDS011;7554;43.600;1.480;2023-03-12T01:53:36;2.50;;;0.70;;
14923;SDS011;7554;43.600;1.480;2023-03-12T01:56:05;0.87;;;0.63;;
14923;SDS011;7554;43.600;1.480;2023-03-12T01:58:34;1.00;;;0.63;;
14923;SDS011;7554;43.600;1.480;2023-03-12T02:01:03;1.20;;;0.50;;
14923;SDS011;7554;43.600;1.480;2023-03-12T02:03:31;0.80;;;0.70;;
14923;SDS011;7554;43.600;1.480;2023-03-12T02:06:01;0.80;;;0.70;;
14923;SDS011;7554;43.600;1.480;2023-03-12T02:08:32;1.73;;;0.70;;
14923;SDS011;7554;43.600;1.480;2023-03-12T02:11:02;3.97;;;0.80;;
14923;SDS011;7554;43.600;1.480;2023-03-12T02:13:30;1.10;;;0.80;;
14923;SDS011;7554;43.600;1.480;2023-03-12T02:15:57;2.53;;;0.90;;
14923;SDS011;7554;43.600;1.480;2023-03-12T02:18:25;0.90;;;0.80;;
14923;SDS011;7554;43.600;1.480;2023-03-12T02:20:55;0.90;;;0.80;;
14923;SDS011;7554;43.600;1.480;2023-03-12T02:23:32;1.03;;;0.80;;
14923;SDS011;7554;43.600;1.480;2023-03-12T02:26:06;1.10;;;0.70;;
14923;SDS011;7554;43.600;1.480;2023-03-12T02:28:35;2.87;;;0.87;;
14923;SDS011;7554;43.600;1.480;2023-03-12T02:31:08;1.93;;;0.90;;
14923;SDS011;7554;43.600;1.480;2023-03-12T02:33:39;1.00;;;0.60;;
14923;SDS011;7554;43.600;1.480;2023-03-12T02:36:06;1.17;;;0.60;;
14923;SDS011;7554;43.600;1.480;2023-03-12T02:38:36;0.83;;;0.67;;
14923;SDS011;7554;43.600;1.480;2023-03-12T02:41:09;0.73;;;0.70;;
14923;SDS011;7554;43.600;1.480;2023-03-12T02:43:42;1.03;;;0.60;;
14923;SDS011;7554;43.600;1.480;2023-03-12T02:46:11;1.43;;;0.60;;
14923;SDS011;7554;43.600;1.480;2023-03-12T02:48:39;0.80;;;0.60;;
14923;SDS011;7554;43.600;1.480;2023-03-12T02:51:06;1.07;;;0.40;;
14923;SDS011;7554;43.600;1.480;2023-03-12T02:53:34;0.60;;;0.20;;
14923;SDS011;7554;43.600;1.480;2023-03-12T02:56:01;0.60;;;0.30;;
14923;SDS011;7554;43.600;1.480;2023-03-12T02:58:30;0.40;;;0.20;;
14923;SDS011;7554;43.600;1.480;2023-03-12T03:00:57;0.83;;;0.20;;
14923;SDS011;7554;43.600;1.480;2023-03-12T03:03:25;0.50;;;0.20;;
14923;SDS011;7554;43.600;1.480;2023-03-12T03:05:52;0.40;;;0.20;;
14923;SDS011;7554;43.600;1.480;2023-03-12T03:08:19;0.83;;;0.20;;
14923;SDS011;7554;43.600;1.480;2023-03-12T03:10:49;0.60;;;0.20;;
14923;SDS011;7554;43.600;1.480;2023-03-12T03:13:17;0.77;;;0.30;;
14923;SDS011;7554;43.600;1.480;2023-03-12T03:15:46;0.90;;;0.50;;
14923;SDS011;7554;43.600;1.480;2023-03-12T03:18:13;0.40;;;0.30;;
14923;SDS011;7554;43.600;1.480;2023-03-12T03:20:41;0.57;;;0.23;;
14923;SDS011;7554;43.600;1.480;2023-03-12T03:23:09;1.53;;;0.30;;
14923;SDS011;7554;43.600;1.480;2023-03-12T03:25:36;0.90;;;0.30;;
14923;SDS011;7554;43.600;1.480;2023-03-12T03:28:04;0.40;;;0.30;;
14923;SDS011;7554;43.600;1.480;2023-03-12T03:30:31;3.73;;;0.40;;
14923;SDS011;7554;43.600;1.480;2023-03-12T03:33:00;1.00;;;0.30;;
14923;SDS011;7554;43.600;1.480;2023-03-12T03:35:28;0.70;;;0.40;;
14923;SDS011;7554;43.600;1.480;2023-03-12T03:37:56;0.30;;;0.20;;
14923;SDS011;7554;43.600;1.480;2023-03-12T03:40:23;0.70;;;0.30;;
14923;SDS011;7554;43.600;1.480;2023-03-12T03:42:50;0.50;;;0.20;;
14923;SDS011;7554;43.600;1.480;2023-03-12T03:45:18;0.40;;;0.20;;
14923;SDS011;7554;43.600;1.480;2023-03-12T03:47:45;0.33;;;0.20;;
14923;SDS011;7554;43.600;1.480;2023-03-12T03:50:14;0.87;;;0.20;;
14923;SDS011;7554;43.600;1.480;2023-03-12T03:52:41;0.50;;;0.33;;
14923;SDS011;7554;43.600;1.480;2023-03-12T03:55:09;0.60;;;0.20;;
14923;SDS011;7554;43.600;1.480;2023-03-12T03:57:36;0.50;;;0.20;;
14923;SDS011;7554;43.600;1.480;2023-03-12T04:00:03;0.40;;;0.20;;
14923;SDS011;7554;43.600;1.480;2023-03-12T04:02:33;2.03;;;0.33;;
14923;SDS011;7554;43.600;1.480;2023-03-12T04:05:01;4.90;;;0.50;;
14923;SDS011;7554;43.600;1.480;2023-03-12T04:07:30;5.97;;;1.10;;
14923;SDS011;7554;43.600;1.480;2023-03-12T04:09:57;9.70;;;1.63;;
14923;SDS011;7554;43.600;1.480;2023-03-12T04:12:24;8.53;;;1.20;;
14923;SDS011;7554;43.600;1.480;2023-03-12T04:14:52;11.23;;;1.23;;
14923;SDS011;7554;43.600;1.480;2023-03-12T04:17:20;9.50;;;1.80;;
14923;SDS011;7554;43.600;1.480;2023-03-12T04:19:48;10.67;;;1.20;;
14923;SDS011;7554;43.600;1.480;2023-03-12T04:22:15;8.97;;;1.53;;
14923;SDS011;7554;43.600;1.480;2023-03-12T04:24:44;10.83;;;1.73;;
14923;SDS011;7554;43.600;1.480;2023-03-12T04:27:11;10.03;;;1.50;;
14923;SDS011;7554;43.600;1.480;2023-03-12T04:29:38;14.03;;;2.13;;
14923;SDS011;7554;43.600;1.480;2023-03-12T04:32:06;12.33;;;1.63;;
14923;SDS011;7554;43.600;1.480;2023-03-12T04:34:33;9.27;;;1.33;;
14923;SDS011;7554;43.600;1.480;2023-03-12T04:37:01;9.23;;;1.40;;
14923;SDS011;7554;43.600;1.480;2023-03-12T04:39:28;10.43;;;1.50;;
14923;SDS011;7554;43.600;1.480;2023-03-12T04:41:57;13.27;;;1.90;;
14923;SDS011;7554;43.600;1.480;2023-03-12T04:44:24;8.70;;;1.60;;
14923;SDS011;7554;43.600;1.480;2023-03-12T04:46:52;12.33;;;1.67;;
14923;SDS011;7554;43.600;1.480;2023-03-12T04:49:19;12.10;;;1.47;;
14923;SDS011;7554;43.600;1.480;2023-03-12T04:51:46;13.63;;;1.83;;
14923;SDS011;7554;43.600;1.480;2023-03-12T04:54:14;7.27;;;1.70;;
14923;SDS011;7554;43.600;1.480;2023-03-12T04:56:41;10.30;;;1.93;;
14923;SDS011;7554;43.600;1.480;2023-03-12T04:59:10;11.50;;;1.80;;
14923;SDS011;7554;43.600;1.480;2023-03-12T05:01:37;11.17;;;1.43;;
14923;SDS011;7554;43.600;1.480;2023-03-12T05:04:04;13.43;;;1.70;;
14923;SDS011;7554;43.600;1.480;2023-03-12T05:06:32;11.90;;;1.70;;
14923;SDS011;7554;43.600;1.480;2023-03-12T05:08:59;7.00;;;1.70;;
14923;SDS011;7554;43.600;1.480;2023-03-12T05:11:28;8.30;;;1.80;;
14923;SDS011;7554;43.600;1.480;2023-03-12T05:13:55;9.93;;;1.70;;
14923;SDS011;7554;43.600;1.480;2023-03-12T05:16:24;11.43;;;1.83;;
14923;SDS011;7554;43.600;1.480;2023-03-12T05:18:51;6.73;;;1.23;;
14923;SDS011;7554;43.600;1.480;2023-03-12T05:21:19;14.23;;;2.17;;
14923;SDS011;7554;43.600;1.480;2023-03-12T05:23:47;12.77;;;1.43;;
14923;SDS011;7554;43.600;1.480;2023-03-12T05:26:15;8.60;;;1.53;;
14923;SDS011;7554;43.600;1.480;2023-03-12T05:28:43;14.30;;;1.93;;
14923;SDS011;7554;43.600;1.480;2023-03-12T05:31:10;10.87;;;1.77;;
14923;SDS011;7554;43.600;1.480;2023-03-12T05:33:40;14.53;;;1.77;;
14923;SDS011;7554;43.600;1.480;2023-03-12T05:36:08;10.80;;;1.67;;
14923;SDS011;7554;43.600;1.480;2023-03-12T05:38:36;11.50;;;1.53;;
14923;SDS011;7554;43.600;1.480;2023-03-12T05:41:04;11.10;;;2.17;;
14923;SDS011;7554;43.600;1.480;2023-03-12T05:43:32;11.70;;;1.80;;
14923;SDS011;7554;43.600;1.480;2023-03-12T05:45:59;12.33;;;1.90;;
14923;SDS011;7554;43.600;1.480;2023-03-12T05:48:30;13.63;;;2.40;;
14923;SDS011;7554;43.600;1.480;2023-03-12T05:50:59;11.33;;;1.60;;
14923;SDS011;7554;43.600;1.480;2023-03-12T05:53:26;6.53;;;1.47;;
14923;SDS011;7554;43.600;1.480;2023-03-12T05:55:54;7.87;;;1.80;;
14923;SDS011;7554;43.600;1.480;2023-03-12T05:58:21;9.70;;;1.73;;
14923;SDS011;7554;43.600;1.480;2023-03-12T06:00:48;9.00;;;1.63;;
14923;SDS011;7554;43.600;1.480;2023-03-12T06:03:15;9.73;;;1.70;;
14923;SDS011;7554;43.600;1.480;2023-03-12T06:05:43;7.00;;;1.80;;
14923;SDS011;7554;43.600;1.480;2023-03-12T06:08:13;14.93;;;1.77;;
14923;SDS011;7554;43.600;1.480;2023-03-12T06:10:40;7.93;;;1.57;;
14923;SDS011;7554;43.600;1.480;2023-03-12T06:13:08;13.17;;;1.97;;
14923;SDS011;7554;43.600;1.480;2023-03-12T06:15:35;11.97;;;1.60;;
14923;SDS011;7554;43.600;1.480;2023-03-12T06:18:03;14.30;;;2.23;;
14923;SDS011;7554;43.600;1.480;2023-03-12T06:20:30;8.43;;;1.60;;
14923;SDS011;7554;43.600;1.480;2023-03-12T06:22:57;11.07;;;1.30;;
14923;SDS011;7554;43.600;1.480;2023-03-12T06:25:26;8.27;;;1.60;;
14923;SDS011;7554;43.600;1.480;2023-03-12T06:27:53;8.33;;;1.67;;
14923;SDS011;7554;43.600;1.480;2023-03-12T06:30:21;5.27;;;1.47;;
14923;SDS011;7554;43.600;1.480;2023-03-12T06:32:48;9.13;;;1.70;;
14923;SDS011;7554;43.600;1.480;2023-03-12T06:35:15;12.37;;;1.87;;
14923;SDS011;7554;43.600;1.480;2023-03-12T06:37:43;11.90;;;1.80;;
14923;SDS011;7554;43.600;1.480;2023-03-12T06:40:10;9.50;;;1.37;;
14923;SDS011;7554;43.600;1.480;2023-03-12T06:42:39;9.67;;;1.63;;
14923;SDS011;7554;43.600;1.480;2023-03-12T06:45:07;5.97;;;1.37;;
14923;SDS011;7554;43.600;1.480;2023-03-12T06:47:35;9.50;;;1.50;;
14923;SDS011;7554;43.600;1.480;2023-03-12T06:50:02;11.10;;;2.30;;
14923;SDS011;7554;43.600;1.480;2023-03-12T06:52:30;10.20;;;2.30;;
14923;SDS011;7554;43.600;1.480;2023-03-12T06:54:57;14.17;;;2.67;;
14923;SDS011;7554;43.600;1.480;2023-03-12T06:57:25;9.73;;;1.73;;
14923;SDS011;7554;43.600;1.480;2023-03-12T06:59:53;8.23;;;1.43;;
14923;SDS011;7554;43.600;1.480;2023-03-12T07:02:21;6.23;;;1.63;;
14923;SDS011;7554;43.600;1.480;2023-03-12T07:04:48;11.63;;;2.30;;
14923;SDS011;7554;43.600;1.480;2023-03-12T07:07:15;11.63;;;2.00;;
14923;SDS011;7554;43.600;1.480;2023-03-12T07:09:44;7.00;;;1.63;;
14923;SDS011;7554;43.600;1.480;2023-03-12T07:12:11;9.10;;;2.20;;
14923;SDS011;7554;43.600;1.480;2023-03-12T07:14:38;10.13;;;2.10;;
14923;SDS011;7554;43.600;1.480;2023-03-12T07:17:07;10.03;;;2.00;;
14923;SDS011;7554;43.600;1.480;2023-03-12T07:19:34;8.47;;;1.77;;
14923;SDS011;7554;43.600;1.480;2023-03-12T07:22:02;9.00;;;1.80;;
14923;SDS011;7554;43.600;1.480;2023-03-12T07:24:29;10.03;;;1.50;;
14923;SDS011;7554;43.600;1.480;2023-03-12T07:26:56;8.07;;;1.47;;
14923;SDS011;7554;43.600;1.480;2023-03-12T07:29:23;7.97;;;1.43;;
14923;SDS011;7554;43.600;1.480;2023-03-12T07:31:51;7.93;;;1.70;;
14923;SDS011;7554;43.600;1.480;2023-03-12T07:34:19;8.50;;;1.40;;
14923;SDS011;7554;43.600;1.480;2023-03-12T07:36:47;8.27;;;1.60;;
14923;SDS011;7554;43.600;1.480;2023-03-12T07:39:14;7.27;;;1.50;;
14923;SDS011;7554;43.600;1.480;2023-03-12T07:41:41;4.87;;;1.43;;
14923;SDS011;7554;43.600;1.480;2023-03-12T07:44:09;3.40;;;1.23;;
14923;SDS011;7554;43.600;1.480;2023-03-12T07:46:36;7.00;;;1.40;;
14923;SDS011;7554;43.600;1.480;2023-03-12T07:49:03;7.90;;;1.60;;
14923;SDS011;7554;43.600;1.480;2023-03-12T07:51:32;7.73;;;1.50;;
14923;SDS011;7554;43.600;1.480;2023-03-12T07:53:59;7.33;;;1.63;;
14923;SDS011;7554;43.600;1.480;2023-03-12T07:56:27;7.80;;;1.50;;
14923;SDS011;7554;43.600;1.480;2023-03-12T07:58:54;4.77;;;1.10;;
14923;SDS011;7554;43.600;1.480;2023-03-12T08:01:22;6.67;;;1.70;;
14923;SDS011;7554;43.600;1.480;2023-03-12T08:03:49;7.17;;;1.73;;
14923;SDS011;7554;43.600;1.480;2023-03-12T08:06:16;10.67;;;1.83;;
14923;SDS011;7554;43.600;1.480;2023-03-12T08:08:46;3.87;;;1.33;;
14923;SDS011;7554;43.600;1.480;2023-03-12T08:11:14;6.37;;;2.30;;
14923;SDS011;7554;43.600;1.480;2023-03-12T08:13:41;8.63;;;2.00;;
14923;SDS011;7554;43.600;1.480;2023-03-12T08:16:08;6.27;;;1.50;;
14923;SDS011;7554;43.600;1.480;2023-03-12T08:18:36;9.20;;;2.17;;
14923;SDS011;7554;43.600;1.480;2023-03-12T08:21:03;8.63;;;1.83;;
14923;SDS011;7554;43.600;1.480;2023-03-12T08:23:31;3.67;;;1.73;;
14923;SDS011;7554;43.600;1.480;2023-03-12T08:26:00;12.43;;;2.13;;
14923;SDS011;7554;43.600;1.480;2023-03-12T08:28:27;17.97;;;3.70;;
14923;SDS011;7554;43.600;1.480;2023-03-12T08:30:57;7.70;;;2.20;;
14923;SDS011;7554;43.600;1.480;2023-03-12T08:33:25;17.63;;;3.80;;
14923;SDS011;7554;43.600;1.480;2023-03-12T08:35:52;14.47;;;3.60;;
14923;SDS011;7554;43.600;1.480;2023-03-12T08:38:20;8.93;;;2.87;;
14923;SDS011;7554;43.600;1.480;2023-03-12T08:40:53;6.17;;;2.60;;
14923;SDS011;7554;43.600;1.480;2023-03-12T08:43:23;10.90;;;2.97;;
14923;SDS011;7554;43.600;1.480;2023-03-12T08:45:54;12.93;;;2.73;;
14923;SDS011;7554;43.600;1.480;2023-03-12T08:48:22;13.67;;;3.63;;
14923;SDS011;7554;43.600;1.480;2023-03-12T08:50:50;8.53;;;2.83;;
14923;SDS011;7554;43.600;1.480;2023-03-12T08:53:19;13.00;;;2.77;;
14923;SDS011;7554;43.600;1.480;2023-03-12T08:55:47;21.67;;;5.10;;
14923;SDS011;7554;43.600;1.480;2023-03-12T08:58:14;5.17;;;1.90;;
14923;SDS011;7554;43.600;1.480;2023-03-12T09:00:42;11.80;;;3.10;;
14923;SDS011;7554;43.600;1.480;2023-03-12T09:03:10;4.67;;;2.10;;
14923;SDS011;7554;43.600;1.480;2023-03-12T09:05:39;4.00;;;1.97;;
14923;SDS011;7554;43.600;1.480;2023-03-12T09:08:06;8.23;;;2.73;;
14923;SDS011;7554;43.600;1.480;2023-03-12T09:10:34;7.80;;;2.40;;
14923;SDS011;7554;43.600;1.480;2023-03-12T09:13:02;7.03;;;2.57;;
14923;SDS011;7554;43.600;1.480;2023-03-12T09:15:30;42.97;;;7.80;;
14923;SDS011;7554;43.600;1.480;2023-03-12T09:17:59;20.23;;;4.40;;
14923;SDS011;7554;43.600;1.480;2023-03-12T09:20:26;5.80;;;1.87;;
14923;SDS011;7554;43.600;1.480;2023-03-12T09:22:54;3.43;;;1.50;;
14923;SDS011;7554;43.600;1.480;2023-03-12T09:25:21;3.27;;;1.50;;
14923;SDS011;7554;43.600;1.480;2023-03-12T09:27:48;3.83;;;1.37;;
14923;SDS011;7554;43.600;1.480;2023-03-12T09:30:16;4.70;;;1.20;;
14923;SDS011;7554;43.600;1.480;2023-03-12T09:32:45;2.80;;;1.10;;
14923;SDS011;7554;43.600;1.480;2023-03-12T09:35:14;2.80;;;1.00;;
14923;SDS011;7554;43.600;1.480;2023-03-12T09:37:41;2.37;;;0.90;;
14923;SDS011;7554;43.600;1.480;2023-03-12T09:40:10;2.97;;;0.70;;
14923;SDS011;7554;43.600;1.480;2023-03-12T09:42:43;1.60;;;0.77;;
14923;SDS011;7554;43.600;1.480;2023-03-12T09:45:15;2.03;;;0.70;;
14923;SDS011;7554;43.600;1.480;2023-03-12T09:47:46;3.93;;;0.80;;
14923;SDS011;7554;43.600;1.480;2023-03-12T09:50:18;1.27;;;0.70;;
14923;SDS011;7554;43.600;1.480;2023-03-12T09:52:50;1.90;;;1.00;;
14923;SDS011;7554;43.600;1.480;2023-03-12T09:55:21;1.10;;;0.77;;
14923;SDS011;7554;43.600;1.480;2023-03-12T09:57:49;1.13;;;0.70;;
14923;SDS011;7554;43.600;1.480;2023-03-12T10:00:18;0.93;;;0.63;;
14923;SDS011;7554;43.600;1.480;2023-03-12T10:02:51;0.93;;;0.70;;
14923;SDS011;7554;43.600;1.480;2023-03-12T10:05:42;1.10;;;0.50;;
14923;SDS011;7554;43.600;1.480;2023-03-12T10:08:16;2.63;;;0.70;;
14923;SDS011;7554;43.600;1.480;2023-03-12T10:10:52;0.90;;;0.40;;
14923;SDS011;7554;43.600;1.480;2023-03-12T10:16:21;1.33;;;0.60;;
14923;SDS011;7554;43.600;1.480;2023-03-12T10:19:13;1.10;;;0.50;;
14923;SDS011;7554;43.600;1.480;2023-03-12T10:21:56;1.10;;;0.50;;
14923;SDS011;7554;43.600;1.480;2023-03-12T10:24:33;2.10;;;0.60;;
14923;SDS011;7554;43.600;1.480;2023-03-12T10:27:13;0.73;;;0.60;;
14923;SDS011;7554;43.600;1.480;2023-03-12T10:29:42;1.63;;;1.00;;
14923;SDS011;7554;43.600;1.480;2023-03-12T10:32:12;1.63;;;1.00;;
14923;SDS011;7554;43.600;1.480;2023-03-12T10:34:43;0.97;;;0.80;;
14923;SDS011;7554;43.600;1.480;2023-03-12T10:37:15;1.20;;;0.60;;
14923;SDS011;7554;43.600;1.480;2023-03-12T10:39:46;1.27;;;0.60;;
14923;SDS011;7554;43.600;1.480;2023-03-12T10:42:15;3.10;;;0.80;;
14923;SDS011;7554;43.600;1.480;2023-03-12T10:44:44;1.93;;;0.80;;
14923;SDS011;7554;43.600;1.480;2023-03-12T10:50:13;1.30;;;0.77;;
14923;SDS011;7554;43.600;1.480;2023-03-12T10:52:44;1.37;;;0.93;;
14923;SDS011;7554;43.600;1.480;2023-03-12T10:55:18;0.50;;;0.40;;
14923;SDS011;7554;43.600;1.480;2023-03-12T10:57:47;0.90;;;0.70;;
14923;SDS011;7554;43.600;1.480;2023-03-12T11:00:19;0.90;;;0.60;;
14923;SDS011;7554;43.600;1.480;2023-03-12T11:02:54;0.80;;;0.70;;
14923;SDS011;7554;43.600;1.480;2023-03-12T11:05:24;1.70;;;0.90;;
14923;SDS011;7554;43.600;1.480;2023-03-12T11:07:55;2.50;;;0.77;;
14923;SDS011;7554;43.600;1.480;2023-03-12T11:10:26;0.97;;;0.80;;
14923;SDS011;7554;43.600;1.480;2023-03-12T11:13:20;1.03;;;0.77;;
14923;SDS011;7554;43.600;1.480;2023-03-12T11:15:53;1.30;;;0.80;;
14923;SDS011;7554;43.600;1.480;2023-03-12T11:18:23;1.37;;;0.60;;
14923;SDS011;7554;43.600;1.480;2023-03-12T11:21:15;1.30;;;0.60;;
14923;SDS011;7554;43.600;1.480;2023-03-12T11:24:01;1.23;;;0.47;;
14923;SDS011;7554;43.600;1.480;2023-03-12T11:26:33;2.63;;;0.60;;
14923;SDS011;7554;43.600;1.480;2023-03-12T11:29:04;0.73;;;0.53;;
14923;SDS011;7554;43.600;1.480;2023-03-12T11:31:40;1.20;;;0.80;;
14923;SDS011;7554;43.600;1.480;2023-03-12T11:34:12;0.97;;;0.70;;
14923;SDS011;7554;43.600;1.480;2023-03-12T11:36:50;1.23;;;0.70;;
14923;SDS011;7554;43.600;1.480;2023-03-12T11:39:28;1.10;;;0.70;;
14923;SDS011;7554;43.600;1.480;2023-03-12T11:42:10;0.80;;;0.67;;
14923;SDS011;7554;43.600;1.480;2023-03-12T11:44:51;1.33;;;0.70;;
14923;SDS011;7554;43.600;1.480;2023-03-12T11:47:32;1.00;;;0.60;;
14923;SDS011;7554;43.600;1.480;2023-03-12T11:50:14;1.77;;;0.57;;
14923;SDS011;7554;43.600;1.480;2023-03-12T11:52:54;1.03;;;0.60;;
14923;SDS011;7554;43.600;1.480;2023-03-12T11:55:41;0.80;;;0.40;;
14923;SDS011;7554;43.600;1.480;2023-03-12T11:58:22;0.90;;;0.33;;
14923;SDS011;7554;43.600;1.480;2023-03-12T12:00:56;0.60;;;0.50;;
14923;SDS011;7554;43.600;1.480;2023-03-12T12:03:43;0.97;;;0.37;;
14923;SDS011;7554;43.600;1.480;2023-03-12T12:06:27;1.17;;;0.50;;
14923;SDS011;7554;43.600;1.480;2023-03-12T12:09:05;1.00;;;0.40;;
14923;SDS011;7554;43.600;1.480;2023-03-12T12:11:47;0.50;;;0.33;;
14923;SDS011;7554;43.600;1.480;2023-03-12T12:14:33;1.10;;;0.40;;
14923;SDS011;7554;43.600;1.480;2023-03-12T12:17:16;0.90;;;0.40;;
14923;SDS011;7554;43.600;1.480;2023-03-12T12:19:55;1.17;;;0.50;;
14923;SDS011;7554;43.600;1.480;2023-03-12T12:22:38;1.40;;;0.73;;
14923;SDS011;7554;43.600;1.480;2023-03-12T12:28:46;1.20;;;0.60;;
14923;SDS011;7554;43.600;1.480;2023-03-12T12:31:36;1.30;;;0.47;;
14923;SDS011;7554;43.600;1.480;2023-03-12T12:34:18;0.90;;;0.50;;
14923;SDS011;7554;43.600;1.480;2023-03-12T12:37:04;0.77;;;0.50;;
14923;SDS011;7554;43.600;1.480;2023-03-12T12:39:44;0.80;;;0.60;;
14923;SDS011;7554;43.600;1.480;2023-03-12T12:42:16;0.80;;;0.50;;
14923;SDS011;7554;43.600;1.480;2023-03-12T12:44:50;1.70;;;0.50;;
14923;SDS011;7554;43.600;1.480;2023-03-12T12:47:20;0.77;;;0.43;;
14923;SDS011;7554;43.600;1.480;2023-03-12T12:49:55;0.60;;;0.40;;
14923;SDS011;7554;43.600;1.480;2023-03-12T12:52:24;0.57;;;0.40;;
14923;SDS011;7554;43.600;1.480;2023-03-12T12:54:54;0.80;;;0.40;;
14923;SDS011;7554;43.600;1.480;2023-03-12T12:57:31;1.03;;;0.40;;
14923;SDS011;7554;43.600;1.480;2023-03-12T13:00:20;4.20;;;1.43;;
14923;SDS011;7554;43.600;1.480;2023-03-12T13:02:57;0.70;;;0.57;;
14923;SDS011;7554;43.600;1.480;2023-03-12T13:05:25;0.67;;;0.47;;
14923;SDS011;7554;43.600;1.480;2023-03-12T13:07:54;0.60;;;0.30;;
14923;SDS011;7554;43.600;1.480;2023-03-12T13:10:40;1.63;;;0.30;;
14923;SDS011;7554;43.600;1.480;2023-03-12T13:13:09;1.03;;;0.30;;
14923;SDS011;7554;43.600;1.480;2023-03-12T13:15:42;0.83;;;0.30;;
14923;SDS011;7554;43.600;1.480;2023-03-12T13:18:22;0.50;;;0.20;;
14923;SDS011;7554;43.600;1.480;2023-03-12T13:23:48;0.63;;;0.50;;
14923;SDS011;7554;43.600;1.480;2023-03-12T13:26:25;0.70;;;0.43;;
14923;SDS011;7554;43.600;1.480;2023-03-12T13:28:58;0.40;;;0.20;;
14923;SDS011;7554;43.600;1.480;2023-03-12T13:31:41;6.73;;;2.90;;
14923;SDS011;7554;43.600;1.480;2023-03-12T13:37:21;1.63;;;0.90;;
14923;SDS011;7554;43.600;1.480;2023-03-12T13:39:57;1.80;;;0.80;;
14923;SDS011;7554;43.600;1.480;2023-03-12T13:42:36;1.97;;;0.93;;
14923;SDS011;7554;43.600;1.480;2023-03-12T13:45:22;1.77;;;0.80;;
14923;SDS011;7554;43.600;1.480;2023-03-12T13:47:54;1.13;;;0.30;;
14923;SDS011;7554;43.600;1.480;2023-03-12T13:50:26;0.57;;;0.37;;
14923;SDS011;7554;43.600;1.480;2023-03-12T13:52:59;0.87;;;0.47;;
14923;SDS011;7554;43.600;1.480;2023-03-12T13:55:30;0.90;;;0.60;;
14923;SDS011;7554;43.600;1.480;2023-03-12T13:57:59;1.90;;;1.00;;
14923;SDS011;7554;43.600;1.480;2023-03-12T14:00:35;0.70;;;0.40;;
14923;SDS011;7554;43.600;1.480;2023-03-12T14:03:10;0.67;;;0.20;;
14923;SDS011;7554;43.600;1.480;2023-03-12T14:05:46;1.00;;;0.33;;
14923;SDS011;7554;43.600;1.480;2023-03-12T14:08:37;0.50;;;0.23;;
14923;SDS011;7554;43.600;1.480;2023-03-12T14:11:20;1.07;;;0.60;;
14923;SDS011;7554;43.600;1.480;2023-03-12T14:14:07;1.23;;;0.80;;
14923;SDS011;7554;43.600;1.480;2023-03-12T14:16:56;1.00;;;0.40;;
14923;SDS011;7554;43.600;1.480;2023-03-12T14:19:27;1.27;;;0.40;;
14923;SDS011;7554;43.600;1.480;2023-03-12T14:21:58;0.70;;;0.30;;
14923;SDS011;7554;43.600;1.480;2023-03-12T14:24:29;1.40;;;0.60;;
14923;SDS011;7554;43.600;1.480;2023-03-12T14:27:00;1.00;;;0.47;;
14923;SDS011;7554;43.600;1.480;2023-03-12T14:29:30;1.67;;;0.77;;
14923;SDS011;7554;43.600;1.480;2023-03-12T14:32:02;2.17;;;0.50;;
14923;SDS011;7554;43.600;1.480;2023-03-12T14:34:34;0.60;;;0.20;;
14923;SDS011;7554;43.600;1.480;2023-03-12T14:37:09;0.70;;;0.60;;
14923;SDS011;7554;43.600;1.480;2023-03-12T14:39:41;1.33;;;0.30;;
14923;SDS011;7554;43.600;1.480;2023-03-12T14:42:17;0.90;;;0.50;;
14923;SDS011;7554;43.600;1.480;2023-03-12T14:44:53;1.57;;;0.30;;
14923;SDS011;7554;43.600;1.480;2023-03-12T14:47:24;0.73;;;0.40;;
14923;SDS011;7554;43.600;1.480;2023-03-12T14:49:53;0.63;;;0.30;;
14923;SDS011;7554;43.600;1.480;2023-03-12T14:52:23;1.00;;;0.33;;
14923;SDS011;7554;43.600;1.480;2023-03-12T14:54:54;1.17;;;0.40;;
14923;SDS011;7554;43.600;1.480;2023-03-12T14:57:23;0.63;;;0.30;;
14923;SDS011;7554;43.600;1.480;2023-03-12T14:59:51;1.07;;;0.40;;
14923;SDS011;7554;43.600;1.480;2023-03-12T15:02:20;0.47;;;0.17;;
14923;SDS011;7554;43.600;1.480;2023-03-12T15:04:50;0.80;;;0.30;;
14923;SDS011;7554;43.600;1.480;2023-03-12T15:07:22;0.60;;;0.40;;
14923;SDS011;7554;43.600;1.480;2023-03-12T15:09:53;1.17;;;0.30;;
14923;SDS011;7554;43.600;1.480;2023-03-12T15:12:21;0.50;;;0.30;;
14923;SDS011;7554;43.600;1.480;2023-03-12T15:14:51;1.10;;;0.40;;
14923;SDS011;7554;43.600;1.480;2023-03-12T15:17:21;0.97;;;0.40;;
14923;SDS011;7554;43.600;1.480;2023-03-12T15:19:54;1.57;;;0.40;;
14923;SDS011;7554;43.600;1.480;2023-03-12T15:22:23;0.50;;;0.20;;
14923;SDS011;7554;43.600;1.480;2023-03-12T15:24:52;1.00;;;0.23;;
14923;SDS011;7554;43.600;1.480;2023-03-12T15:27:27;1.80;;;0.20;;
14923;SDS011;7554;43.600;1.480;2023-03-12T15:29:58;0.60;;;0.20;;
14923;SDS011;7554;43.600;1.480;2023-03-12T15:32:26;0.63;;;0.30;;
14923;SDS011;7554;43.600;1.480;2023-03-12T15:34:57;0.80;;;0.30;;
14923;SDS011;7554;43.600;1.480;2023-03-12T15:37:25;0.70;;;0.20;;
14923;SDS011;7554;43.600;1.480;2023-03-12T15:39:57;1.00;;;0.33;;